Time;durP1;ratioP1;P1;durP2;ratioP2;P2;SDS_P1;SDS_P2;PMS_P1;PMS_P2;Temp;Humidity;BMP_temperature;BMP_pressure;BME280_temperature;BME280_humidity;BME280_pressure;Samples;Min_cycle;Max_cycle;Signal;HPM_P1;HPM_P2
2021/05/26 00:00:14;;;;;;;1.57;1.00;;;;;;;13.99;45.71;95861.91;4956367;29;20224;-87
2021/05/26 00:02:40;;;;;;;1.73;0.90;;;;;;;13.98;45.82;95862.13;4956213;29;20229;-85
2021/05/26 00:05:07;;;;;;;1.47;1.00;;;;;;;14.02;45.90;95855.56;4954481;28;20609;-87
2021/05/26 00:07:33;;;;;;;0.97;0.90;;;;;;;13.97;45.63;95861.31;4956250;29;20197;-87
2021/05/26 00:09:59;;;;;;;0.90;0.80;;;;;;;13.93;45.89;95847.16;4956177;29;20207;-85
2021/05/26 00:12:26;;;;;;;0.90;0.83;;;;;;;13.89;46.84;95850.28;4956166;29;20209;-88
2021/05/26 00:14:52;;;;;;;1.40;0.90;;;;;;;13.90;46.18;95844.94;4956377;29;20217;-88
2021/05/26 00:17:18;;;;;;;0.90;0.77;;;;;;;13.90;46.24;95849.31;4956390;29;20228;-87
2021/05/26 00:19:44;;;;;;;2.03;0.90;;;;;;;13.90;46.51;95850.09;4955253;29;20201;-86
2021/05/26 00:22:10;;;;;;;1.03;0.90;;;;;;;13.89;46.05;95851.09;4954886;29;20613;-87
2021/05/26 00:24:36;;;;;;;1.13;0.90;;;;;;;13.85;46.26;95842.13;4955535;29;20818;-85
2021/05/26 00:27:02;;;;;;;1.30;1.07;;;;;;;13.81;46.35;95830.56;4955547;29;20345;-87
2021/05/26 00:29:29;;;;;;;1.33;1.10;;;;;;;13.65;46.89;95836.03;4955563;29;20196;-86
2021/05/26 00:31:55;;;;;;;3.10;1.00;;;;;;;13.70;46.87;95831.88;4955342;28;20232;-86
2021/05/26 00:34:21;;;;;;;0.80;0.80;;;;;;;13.70;46.72;95828.47;4956315;29;20197;-86
2021/05/26 00:36:47;;;;;;;1.37;1.00;;;;;;;13.73;46.77;95831.50;4955379;29;20252;-87
2021/05/26 00:39:13;;;;;;;2.50;1.00;;;;;;;13.69;46.50;95827.69;4954822;29;20204;-86
2021/05/26 00:41:39;;;;;;;3.40;1.40;;;;;;;13.66;46.91;95819.53;4954313;29;20220;-87
2021/05/26 00:44:06;;;;;;;1.43;0.90;;;;;;;13.59;47.61;95818.66;4955389;29;20292;-87
2021/05/26 00:46:40;;;;;;;1.17;1.00;;;;;;;13.61;47.68;95814.91;4954701;29;20260;-87
2021/05/26 00:49:06;;;;;;;1.97;1.10;;;;;;;13.65;46.96;95815.34;4955442;29;20205;-88
2021/05/26 00:51:32;;;;;;;1.77;1.00;;;;;;;13.57;47.99;95807.72;4956048;29;20236;-86
2021/05/26 00:53:58;;;;;;;2.20;1.10;;;;;;;13.58;47.90;95802.34;4956641;29;20200;-88
2021/05/26 00:56:24;;;;;;;5.30;1.10;;;;;;;13.57;47.57;95808.50;4955540;29;20228;-85
2021/05/26 00:58:50;;;;;;;1.27;0.97;;;;;;;13.56;47.74;95806.91;4956187;29;20724;-86
2021/05/26 01:01:17;;;;;;;1.37;1.23;;;;;;;13.60;47.01;95805.53;4955044;29;20248;-87
2021/05/26 01:03:44;;;;;;;1.13;0.93;;;;;;;13.56;47.59;95804.31;4955320;29;20205;-87
2021/05/26 01:06:10;;;;;;;3.17;0.80;;;;;;;13.58;47.20;95801.53;4954499;29;20676;-87
2021/05/26 01:08:36;;;;;;;1.30;0.93;;;;;;;13.60;46.98;95794.41;4955411;29;20211;-86
2021/05/26 01:11:03;;;;;;;2.47;0.90;;;;;;;13.51;47.58;95792.94;4953953;29;20213;-88
2021/05/26 01:13:30;;;;;;;1.80;0.90;;;;;;;13.51;47.63;95793.72;4954716;29;20238;-86
2021/05/26 01:15:56;;;;;;;1.20;1.00;;;;;;;13.44;48.05;95791.13;4954054;29;20573;-87
2021/05/26 01:18:24;;;;;;;1.30;1.10;;;;;;;13.44;47.93;95792.91;4954822;29;20287;-87
2021/05/26 01:20:52;;;;;;;2.00;1.00;;;;;;;13.46;47.58;95790.94;4954376;29;20204;-85
2021/05/26 01:23:19;;;;;;;1.97;0.97;;;;;;;13.44;47.93;95785.94;4955501;29;20208;-87
2021/05/26 01:25:49;;;;;;;1.97;1.23;;;;;;;13.46;48.05;95776.22;4954428;29;20205;-89
2021/05/26 01:28:16;;;;;;;1.27;0.90;;;;;;;13.40;48.67;95771.78;4955369;29;20207;-85
2021/05/26 01:30:42;;;;;;;1.17;1.00;;;;;;;13.31;48.15;95767.75;4956906;29;20205;-89
2021/05/26 01:33:08;;;;;;;1.50;1.00;;;;;;;13.29;49.06;95769.72;4957495;28;20882;-88
2021/05/26 01:35:37;;;;;;;1.53;1.00;;;;;;;13.26;49.19;95771.91;4957849;29;20204;-89
2021/05/26 01:38:03;;;;;;;2.17;1.00;;;;;;;13.30;48.20;95773.09;4958799;29;20200;-88
2021/05/26 01:40:30;;;;;;;1.00;0.80;;;;;;;13.28;48.96;95770.69;4959477;29;20233;-88
2021/05/26 01:42:56;;;;;;;1.80;1.00;;;;;;;13.23;49.28;95765.31;4958562;29;20434;-88
2021/05/26 01:45:22;;;;;;;1.10;0.93;;;;;;;13.13;49.36;95765.59;4958225;29;20193;-88
2021/05/26 01:47:50;;;;;;;1.10;1.00;;;;;;;13.14;49.20;95764.59;4959270;29;20263;-89
2021/05/26 01:50:22;;;;;;;1.47;0.87;;;;;;;13.19;48.58;95769.25;4960197;28;20240;-89
2021/05/26 01:52:50;;;;;;;1.40;1.00;;;;;;;13.12;49.17;95766.56;4958518;28;20229;-87
2021/05/26 01:55:17;;;;;;;0.93;0.83;;;;;;;13.14;49.10;95768.97;4959780;28;20205;-88
2021/05/26 01:57:45;;;;;;;1.10;1.00;;;;;;;13.17;49.96;95758.28;4958603;29;20225;-88
2021/05/26 02:00:13;;;;;;;1.73;1.27;;;;;;;13.16;49.83;95753.31;4959071;29;20213;-86
2021/05/26 02:02:39;;;;;;;2.90;1.10;;;;;;;13.10;50.21;95752.22;4958899;29;20612;-87
2021/05/26 02:05:08;;;;;;;2.00;1.00;;;;;;;13.16;49.52;95748.13;4959006;29;20224;-87
2021/05/26 02:07:34;;;;;;;1.43;0.90;;;;;;;13.04;49.93;95748.63;4959213;28;20204;-89
2021/05/26 02:10:00;;;;;;;2.30;1.10;;;;;;;12.95;50.71;95751.53;4957025;29;20209;-88
2021/05/26 02:12:32;;;;;;;1.40;1.20;;;;;;;12.94;50.01;95742.97;4956503;29;20239;-89
2021/05/26 02:15:00;;;;;;;1.20;1.00;;;;;;;12.83;50.38;95746.06;4956895;29;20220;-88
2021/05/26 02:17:26;;;;;;;1.13;0.90;;;;;;;12.77;50.95;95749.41;4958016;29;20225;-89
2021/05/26 02:19:52;;;;;;;1.10;0.97;;;;;;;12.75;50.91;95749.56;4958628;29;20205;-89
2021/05/26 02:22:19;;;;;;;1.30;1.00;;;;;;;12.74;50.74;95745.41;4957676;29;20248;-89
2021/05/26 02:24:46;;;;;;;2.03;0.90;;;;;;;12.76;50.25;95740.03;4958012;29;20197;-87
2021/05/26 02:27:13;;;;;;;2.07;0.97;;;;;;;12.77;50.70;95749.41;4958790;28;20193;-89
2021/05/26 02:29:39;;;;;;;1.77;1.10;;;;;;;12.74;51.00;95742.00;4960758;29;20209;-89
2021/05/26 02:32:07;;;;;;;1.47;1.33;;;;;;;12.70;50.80;95738.22;4959928;28;20217;-88
2021/05/26 02:34:33;;;;;;;1.23;0.90;;;;;;;12.68;50.97;95735.81;4959359;29;20204;-89
2021/05/26 02:36:59;;;;;;;1.30;0.97;;;;;;;12.64;50.71;95731.19;4960303;29;20244;-88
2021/05/26 02:39:26;;;;;;;1.30;1.00;;;;;;;12.67;50.68;95725.66;4960381;29;20209;-89
2021/05/26 02:41:52;;;;;;;0.90;0.90;;;;;;;12.63;50.68;95727.03;4956698;29;20599;-84
2021/05/26 02:44:18;;;;;;;1.90;1.00;;;;;;;12.66;50.21;95731.81;4953748;29;20300;-86
2021/05/26 02:46:44;;;;;;;1.00;0.90;;;;;;;12.66;50.86;95724.06;4953372;29;20212;-87
2021/05/26 02:49:11;;;;;;;1.27;0.97;;;;;;;12.56;51.23;95721.78;4953485;29;20209;-87
2021/05/26 02:51:38;;;;;;;3.93;0.90;;;;;;;12.58;50.40;95719.81;4952894;29;20217;-87
2021/05/26 02:54:05;;;;;;;0.97;0.93;;;;;;;12.60;50.72;95715.28;4953843;29;20215;-86
2021/05/26 02:56:31;;;;;;;1.10;0.97;;;;;;;12.56;50.56;95714.03;4953661;29;20782;-85
2021/05/26 02:58:58;;;;;;;1.20;1.10;;;;;;;12.55;50.59;95709.06;4953800;29;20260;-85
2021/05/26 03:01:24;;;;;;;1.53;1.07;;;;;;;12.52;50.95;95709.41;4953502;29;20217;-86
2021/05/26 03:03:50;;;;;;;1.20;0.87;;;;;;;12.47;50.72;95707.41;4954692;29;20209;-87
2021/05/26 03:06:17;;;;;;;1.47;0.87;;;;;;;12.45;50.69;95701.63;4954215;29;20197;-87
2021/05/26 03:08:43;;;;;;;1.10;1.00;;;;;;;12.41;51.06;95705.56;4954212;29;20227;-87
2021/05/26 03:11:09;;;;;;;1.07;0.97;;;;;;;12.37;51.43;95699.16;4954120;29;20209;-87
2021/05/26 03:13:35;;;;;;;2.57;1.10;;;;;;;12.30;51.74;95709.44;4953724;29;20213;-87
2021/05/26 03:16:02;;;;;;;1.77;0.97;;;;;;;12.25;52.10;95698.06;4953623;29;20315;-85
2021/05/26 03:18:29;;;;;;;0.93;0.80;;;;;;;12.18;51.90;95697.19;4945287;29;20208;-86
2021/05/26 03:20:55;;;;;;;1.57;1.03;;;;;;;12.19;51.98;95697.00;4953181;29;20204;-86
2021/05/26 03:23:24;;;;;;;0.80;0.80;;;;;;;12.14;52.40;95701.09;4953894;29;20730;-87
2021/05/26 03:25:51;;;;;;;3.00;0.90;;;;;;;12.14;52.02;95701.09;4954014;29;20204;-87
2021/05/26 03:28:17;;;;;;;1.87;0.90;;;;;;;12.17;51.65;95701.53;4953751;29;20204;-87
2021/05/26 03:30:44;;;;;;;1.10;1.00;;;;;;;12.16;52.17;95701.72;4954152;29;20204;-85
2021/05/26 03:33:11;;;;;;;1.00;1.00;;;;;;;12.17;51.76;95701.53;4954271;29;20247;-86
2021/05/26 03:35:37;;;;;;;1.47;1.13;;;;;;;12.19;51.59;95701.38;4956892;29;20219;-87
2021/05/26 03:38:04;;;;;;;1.53;1.00;;;;;;;12.10;51.57;95693.75;4957058;28;20204;-87
2021/05/26 03:40:31;;;;;;;1.20;1.10;;;;;;;12.13;51.89;95702.88;4957897;29;20697;-89
2021/05/26 03:42:57;;;;;;;1.53;1.00;;;;;;;12.17;51.56;95695.59;4957368;29;20310;-88
2021/05/26 03:45:23;;;;;;;1.00;0.90;;;;;;;12.20;51.67;95700.38;4957734;29;20205;-87
2021/05/26 03:47:49;;;;;;;2.13;1.00;;;;;;;12.21;51.80;95697.63;4959231;29;20569;-88
2021/05/26 03:50:15;;;;;;;1.20;1.00;;;;;;;12.20;51.89;95692.66;4958452;29;20205;-88
2021/05/26 03:52:42;;;;;;;1.47;1.03;;;;;;;12.19;52.09;95691.84;4957680;29;20224;-88
2021/05/26 03:55:10;;;;;;;1.90;1.00;;;;;;;12.21;51.42;95694.25;4957560;29;20256;-87
2021/05/26 03:57:38;;;;;;;1.47;1.00;;;;;;;12.23;51.59;95689.69;4957182;29;20224;-85
2021/05/26 04:00:06;;;;;;;1.40;1.00;;;;;;;12.29;51.77;95688.97;4955611;29;20201;-89
2021/05/26 04:02:32;;;;;;;2.00;1.13;;;;;;;12.30;51.87;95685.41;4956758;29;20229;-89
2021/05/26 04:04:58;;;;;;;1.03;0.97;;;;;;;12.32;51.17;95684.22;4957120;29;20721;-87
2021/05/26 04:07:24;;;;;;;1.93;0.90;;;;;;;12.30;51.37;95681.03;4957213;29;20193;-88
2021/05/26 04:09:50;;;;;;;3.47;1.20;;;;;;;12.34;51.21;95684.03;4957876;29;20211;-87
2021/05/26 04:12:16;;;;;;;1.53;1.23;;;;;;;12.37;51.29;95678.50;4957379;29;20445;-89
2021/05/26 04:14:43;;;;;;;1.43;0.93;;;;;;;12.40;51.31;95684.09;4956203;29;20216;-88
2021/05/26 04:17:09;;;;;;;1.20;1.10;;;;;;;12.33;51.12;95688.41;4954754;29;20217;-86
2021/05/26 04:19:35;;;;;;;0.87;0.87;;;;;;;12.36;51.42;95687.22;4954804;29;20240;-87
2021/05/26 04:22:01;;;;;;;1.23;1.07;;;;;;;12.38;50.84;95680.09;4954543;29;20787;-85
2021/05/26 04:24:27;;;;;;;1.10;1.00;;;;;;;12.38;51.21;95675.75;4955704;29;20201;-84
2021/05/26 04:26:53;;;;;;;8.43;7.57;;;;;;;12.36;51.39;95680.28;4956092;29;20200;-88
2021/05/26 04:29:19;;;;;;;1.97;1.63;;;;;;;12.36;51.33;95679.47;4955361;29;20219;-87
2021/05/26 04:31:46;;;;;;;2.70;1.30;;;;;;;12.44;51.10;95676.78;4954909;29;20267;-88
2021/05/26 04:34:13;;;;;;;1.80;1.10;;;;;;;12.43;51.27;95682.94;4955638;29;20225;-87
2021/05/26 04:36:39;;;;;;;1.87;1.20;;;;;;;12.47;51.18;95679.00;4955224;29;20227;-88
2021/05/26 04:39:05;;;;;;;2.13;1.42;;;;;;;12.52;50.95;95681.81;4953125;28;20602;-88
2021/05/26 04:41:31;;;;;;;4.23;1.40;;;;;;;12.53;50.70;95680.81;4944806;28;20318;-87
2021/05/26 04:43:57;;;;;;;1.60;1.10;;;;;;;12.52;50.62;95678.44;4953921;29;20204;-88
2021/05/26 04:46:23;;;;;;;1.20;1.00;;;;;;;12.43;50.45;95683.75;4953481;29;20232;-89
2021/05/26 04:48:50;;;;;;;2.77;1.10;;;;;;;12.43;50.65;95676.00;4955213;29;20213;-87
2021/05/26 04:51:16;;;;;;;17.90;1.47;;;;;;;12.54;50.91;95677.25;4951970;28;20759;-84
2021/05/26 04:53:42;;;;;;;2.63;1.00;;;;;;;12.60;50.06;95678.31;4953806;29;20216;-87
2021/05/26 04:56:08;;;;;;;1.30;1.20;;;;;;;12.59;49.79;95680.09;4952521;29;20244;-87
2021/05/26 04:58:34;;;;;;;2.90;1.20;;;;;;;12.63;49.79;95671.00;4952341;29;20197;-87
2021/05/26 05:01:00;;;;;;;1.43;0.97;;;;;;;12.70;49.88;95676.22;4952641;29;20619;-87
2021/05/26 05:03:26;;;;;;;1.20;1.00;;;;;;;12.75;50.11;95677.22;4959418;29;20212;-87
2021/05/26 05:05:53;;;;;;;1.57;1.13;;;;;;;12.76;49.83;95678.03;4958096;29;20676;-87
2021/05/26 05:08:19;;;;;;;2.23;1.10;;;;;;;12.73;50.35;95678.41;4957500;29;20200;-88
2021/05/26 05:10:45;;;;;;;2.30;1.10;;;;;;;12.71;50.28;95680.38;4956441;29;20207;-88
2021/05/26 05:13:11;;;;;;;3.43;1.10;;;;;;;12.80;50.36;95671.50;4956081;29;20224;-87
2021/05/26 05:15:37;;;;;;;1.20;1.10;;;;;;;12.90;50.25;95682.31;4955642;29;20204;-87
2021/05/26 05:18:03;;;;;;;1.07;0.97;;;;;;;13.02;49.61;95682.59;4954640;29;20228;-87
2021/05/26 05:20:29;;;;;;;1.87;1.20;;;;;;;13.11;49.56;95682.25;4956298;29;20200;-87
2021/05/26 05:22:56;;;;;;;1.13;1.00;;;;;;;13.13;49.16;95679.47;4954501;29;20231;-88
2021/05/26 05:25:23;;;;;;;3.67;1.10;;;;;;;13.19;49.51;95677.97;4955078;29;20204;-88
2021/05/26 05:27:49;;;;;;;1.50;1.07;;;;;;;13.18;49.07;95676.38;4955887;29;20197;-87
2021/05/26 05:30:16;;;;;;;5.83;1.03;;;;;;;13.25;48.93;95677.22;4955898;29;20200;-88
2021/05/26 05:32:42;;;;;;;4.47;1.50;;;;;;;13.34;49.27;95673.47;4955981;28;20609;-88
2021/05/26 05:35:09;;;;;;;2.20;1.27;;;;;;;13.42;49.20;95678.50;4950255;29;20223;-87
2021/05/26 05:37:35;;;;;;;1.40;1.20;;;;;;;13.32;48.86;95673.66;4953603;29;20251;-89
2021/05/26 05:40:03;;;;;;;2.50;1.17;;;;;;;13.31;48.90;95673.84;4955028;29;20236;-87
2021/05/26 05:42:29;;;;;;;5.57;1.60;;;;;;;13.34;48.20;95676.84;4953633;29;20662;-87
2021/05/26 05:44:56;;;;;;;2.10;1.10;;;;;;;13.30;48.08;95670.47;4952388;29;20212;-88
2021/05/26 05:47:22;;;;;;;1.33;1.13;;;;;;;13.44;48.61;95668.75;4952921;29;20279;-89
2021/05/26 05:49:48;;;;;;;2.17;1.17;;;;;;;13.52;48.61;95668.56;4954043;29;20197;-88
2021/05/26 05:52:15;;;;;;;1.10;1.00;;;;;;;13.69;48.35;95662.06;4954793;29;20238;-88
2021/05/26 05:54:41;;;;;;;1.63;1.27;;;;;;;13.83;48.17;95666.31;4955153;29;20272;-87
2021/05/26 05:57:08;;;;;;;1.80;1.20;;;;;;;13.97;48.06;95661.97;4954917;29;20267;-87
2021/05/26 05:59:34;;;;;;;2.10;1.20;;;;;;;14.03;47.45;95665.59;4954360;29;20220;-88
2021/05/26 06:02:00;;;;;;;1.43;1.30;;;;;;;14.14;47.38;95663.22;4956467;28;20225;-87
2021/05/26 06:04:26;;;;;;;3.50;1.20;;;;;;;14.13;47.29;95653.84;4958706;29;20196;-86
2021/05/26 06:06:52;;;;;;;2.07;1.13;;;;;;;14.24;47.54;95659.47;4958256;29;20660;-87
2021/05/26 06:09:20;;;;;;;7.50;1.10;;;;;;;14.20;46.55;95653.88;4958037;29;20221;-88
2021/05/26 06:11:46;;;;;;;1.00;0.90;;;;;;;14.25;46.45;95659.22;4957118;29;20251;-87
2021/05/26 06:14:13;;;;;;;1.80;1.20;;;;;;;14.26;46.75;95655.66;4957243;29;20240;-88
2021/05/26 06:16:40;;;;;;;1.23;1.03;;;;;;;14.16;45.84;95658.63;4956317;29;20228;-86
2021/05/26 06:19:07;;;;;;;1.40;1.03;;;;;;;14.17;45.85;95659.44;4957042;29;20204;-87
2021/05/26 06:21:34;;;;;;;1.60;1.10;;;;;;;14.12;46.27;95656.63;4956647;29;20256;-86
2021/05/26 06:24:01;;;;;;;3.63;1.33;;;;;;;14.22;46.41;95645.91;4956185;28;20232;-87
2021/05/26 06:26:31;;;;;;;2.30;1.00;;;;;;;14.33;46.13;95651.28;4955103;29;20208;-87
2021/05/26 06:28:57;;;;;;;1.33;1.07;;;;;;;14.40;46.11;95641.78;4951587;29;20201;-88
2021/05/26 06:31:24;;;;;;;1.13;0.90;;;;;;;14.47;46.41;95639.97;4951330;29;20291;-86
2021/05/26 06:33:50;;;;;;;2.23;1.10;;;;;;;14.52;45.66;95645.34;4955803;29;20233;-87
2021/05/26 06:36:16;;;;;;;3.00;0.97;;;;;;;14.62;45.55;95644.16;4957387;29;20225;-88
2021/05/26 06:38:42;;;;;;;2.00;1.10;;;;;;;14.64;46.16;95642.94;4955568;29;20201;-88
2021/05/26 06:41:08;;;;;;;2.67;0.87;;;;;;;14.70;45.24;95641.34;4955278;29;20197;-88
2021/05/26 06:43:34;;;;;;;1.77;0.90;;;;;;;14.66;44.47;95643.53;4943260;29;20707;-89
2021/05/26 06:46:00;;;;;;;0.90;0.83;;;;;;;14.69;44.98;95640.56;4947678;29;20205;-87
2021/05/26 06:48:27;;;;;;;0.77;0.70;;;;;;;14.72;44.84;95631.59;4956446;29;20224;-87
2021/05/26 06:50:53;;;;;;;2.73;1.10;;;;;;;14.83;44.80;95631.75;4955865;29;20296;-87
2021/05/26 06:53:19;;;;;;;0.90;0.73;;;;;;;14.91;44.42;95635.16;4956111;29;20228;-87
2021/05/26 06:55:45;;;;;;;1.10;1.00;;;;;;;15.01;43.98;95625.94;4956044;28;20224;-86
2021/05/26 06:58:11;;;;;;;0.90;0.90;;;;;;;14.99;44.06;95629.78;4954314;28;20224;-88
2021/05/26 07:00:37;;;;;;;1.10;0.83;;;;;;;15.15;44.71;95627.53;4956634;28;20412;-89
2021/05/26 07:03:03;;;;;;;1.53;0.90;;;;;;;15.25;44.46;95621.91;4956055;29;20259;-87
2021/05/26 07:05:31;;;;;;;1.80;0.93;;;;;;;15.41;44.47;95618.84;4954955;29;20204;-87
2021/05/26 07:07:57;;;;;;;0.80;0.80;;;;;;;15.49;44.27;95623.81;4955888;29;20192;-87
2021/05/26 07:10:23;;;;;;;1.30;1.00;;;;;;;15.55;43.63;95617.03;4956287;29;20237;-88
2021/05/26 07:12:50;;;;;;;1.50;0.90;;;;;;;15.60;43.36;95622.41;4954046;28;20786;-87
2021/05/26 07:15:17;;;;;;;1.00;0.80;;;;;;;15.60;43.25;95614.63;4955182;28;20208;-89
2021/05/26 07:17:43;;;;;;;1.33;0.77;;;;;;;15.67;42.98;95606.81;4956314;28;20228;-89
2021/05/26 07:20:11;;;;;;;0.87;0.83;;;;;;;15.73;43.02;95609.38;4956257;29;20200;-88
2021/05/26 07:22:38;;;;;;;2.30;1.00;;;;;;;15.81;43.48;95596.13;4952943;28;20221;-87
2021/05/26 07:25:05;;;;;;;0.80;0.77;;;;;;;15.83;42.68;95601.13;4953729;29;20557;-86
2021/05/26 07:27:30;;;;;;;0.70;0.70;;;;;;;15.73;42.00;95598.19;4954481;29;20193;-88
2021/05/26 07:29:57;;;;;;;2.90;0.80;;;;;;;15.73;42.33;95595.59;4955069;29;20212;-88
2021/05/26 07:32:23;;;;;;;1.87;0.90;;;;;;;15.75;42.20;95591.00;4954208;28;20247;-89
2021/05/26 07:34:49;;;;;;;1.47;0.90;;;;;;;15.82;42.76;95584.75;4954068;29;20201;-88
2021/05/26 07:37:15;;;;;;;2.30;1.00;;;;;;;16.04;42.42;95587.00;4955535;29;20823;-87
2021/05/26 07:39:42;;;;;;;3.10;0.80;;;;;;;16.19;41.21;95584.91;4955899;29;20228;-88
2021/05/26 07:42:12;;;;;;;1.30;0.80;;;;;;;16.30;41.80;95580.84;4956446;29;20213;-88
2021/05/26 07:44:38;;;;;;;1.60;0.70;;;;;;;16.38;41.98;95572.78;4955623;29;20219;-88
2021/05/26 07:47:04;;;;;;;2.17;0.98;;;;;;;16.44;41.66;95574.53;4955345;29;20197;-87
2021/05/26 07:49:30;;;;;;;1.27;0.90;;;;;;;16.44;42.37;95572.72;4955650;29;20228;-87
2021/05/26 07:52:02;;;;;;;1.88;0.90;;;;;;;16.37;41.21;95568.56;4955619;29;20221;-87
2021/05/26 07:54:33;;;;;;;1.85;1.38;;;;;;;16.16;40.49;95560.13;4954615;29;20241;-88
2021/05/26 07:57:00;;;;;;;1.35;0.77;;;;;;;15.99;39.95;95566.06;4955965;29;20699;-87
2021/05/26 07:59:28;;;;;;;1.75;0.80;;;;;;;15.97;40.61;95562.91;4957638;29;20205;-88
2021/05/26 08:01:54;;;;;;;1.30;0.98;;;;;;;16.02;40.89;95570.84;4957784;29;20311;-87
2021/05/26 08:04:20;;;;;;;2.77;0.90;;;;;;;16.11;40.60;95556.59;4956365;29;20205;-88
2021/05/26 08:06:46;;;;;;;0.70;0.70;;;;;;;16.11;41.01;95544.41;4955337;29;20231;-88
2021/05/26 08:09:13;;;;;;;1.30;0.90;;;;;;;16.25;41.38;95552.91;4956516;29;20302;-87
2021/05/26 08:11:39;;;;;;;1.20;0.85;;;;;;;16.17;40.77;95555.75;4955696;29;20316;-87
2021/05/26 08:14:06;;;;;;;1.33;0.80;;;;;;;16.17;40.26;95553.16;4956494;29;20287;-88
2021/05/26 08:16:32;;;;;;;1.37;0.80;;;;;;;16.19;39.98;95549.34;4951570;28;20279;-89
2021/05/26 08:18:58;;;;;;;1.93;0.90;;;;;;;16.28;40.41;95547.28;4954129;29;20201;-86
2021/05/26 08:21:24;;;;;;;4.90;1.05;;;;;;;16.15;40.42;95550.78;4954285;29;20216;-87
2021/05/26 08:23:50;;;;;;;2.70;0.95;;;;;;;16.10;40.59;95553.22;4955122;29;20201;-87
2021/05/26 08:26:20;;;;;;;1.83;0.90;;;;;;;16.15;40.56;95553.38;4954840;28;20217;-89
2021/05/26 08:28:47;;;;;;;2.90;1.00;;;;;;;16.09;41.36;95550.81;4953476;29;20271;-87
2021/05/26 08:31:14;;;;;;;3.00;0.90;;;;;;;16.05;40.95;95547.06;4954616;29;20726;-87
2021/05/26 08:33:40;;;;;;;2.33;0.90;;;;;;;15.96;40.56;95549.13;4956127;29;20238;-86
2021/05/26 08:36:06;;;;;;;1.48;0.80;;;;;;;15.92;40.97;95544.56;4955835;29;20209;-90
2021/05/26 08:38:32;;;;;;;0.73;0.73;;;;;;;15.98;40.67;95543.69;4955244;29;20208;-89
2021/05/26 08:41:03;;;;;;;3.47;1.20;;;;;;;16.03;40.66;95549.06;4954592;29;20205;-88
2021/05/26 08:43:30;;;;;;;1.77;1.00;;;;;;;16.00;40.79;95544.28;4955977;29;20201;-88
2021/05/26 08:45:56;;;;;;;1.38;0.80;;;;;;;16.03;40.57;95534.28;4955098;29;20240;-88
2021/05/26 08:48:28;;;;;;;1.00;0.90;;;;;;;16.12;40.40;95538.22;4955190;29;20263;-85
2021/05/26 08:50:56;;;;;;;1.00;0.80;;;;;;;16.10;40.71;95529.03;4951468;29;20208;-85
2021/05/26 08:53:22;;;;;;;1.77;1.00;;;;;;;15.94;40.81;95537.34;4952081;29;20225;-87
2021/05/26 08:55:48;;;;;;;4.13;0.98;;;;;;;15.98;41.24;95538.50;4951432;29;20205;-86
2021/05/26 08:58:14;;;;;;;1.98;0.93;;;;;;;15.99;41.93;95537.50;4935822;29;20225;-88
2021/05/26 09:00:41;;;;;;;0.75;0.73;;;;;;;15.84;41.75;95538.59;4952905;29;20197;-86
2021/05/26 09:03:07;;;;;;;1.00;0.90;;;;;;;15.83;41.88;95531.03;4953812;29;20251;-87
2021/05/26 09:05:34;;;;;;;1.70;0.97;;;;;;;15.73;42.24;95528.09;4953449;29;20208;-87
2021/05/26 09:08:11;;;;;;;2.72;1.20;;;;;;;15.77;42.21;95529.28;4955216;29;20212;-87
2021/05/26 09:10:46;;;;;;;1.77;0.90;;;;;;;15.80;42.72;95527.03;4954229;28;20205;-87
2021/05/26 09:13:29;;;;;;;1.52;0.80;;;;;;;15.93;42.94;95530.56;4952795;28;20387;-87
2021/05/26 09:15:55;;;;;;;1.08;0.90;;;;;;;16.00;43.21;95536.50;4953204;29;20623;-88
2021/05/26 09:18:21;;;;;;;0.75;0.75;;;;;;;15.91;42.19;95528.19;4953069;28;20224;-88
2021/05/26 09:20:49;;;;;;;1.63;1.13;;;;;;;15.93;42.44;95535.75;4953283;29;20237;-87
2021/05/26 09:23:18;;;;;;;1.40;0.88;;;;;;;15.95;42.56;95533.75;4954076;29;20220;-87
2021/05/26 09:25:52;;;;;;;1.88;0.90;;;;;;;15.91;43.32;95528.19;4953478;29;20197;-88
2021/05/26 09:28:28;;;;;;;1.33;1.17;;;;;;;15.97;42.83;95518.75;4954170;29;20199;-87
2021/05/26 09:31:01;;;;;;;1.90;0.97;;;;;;;15.98;43.00;95515.13;4935463;29;20193;-87
2021/05/26 09:33:38;;;;;;;1.90;1.17;;;;;;;15.98;42.86;95507.34;4933578;29;20320;-89
2021/05/26 09:36:16;;;;;;;1.00;0.90;;;;;;;16.03;43.03;95497.13;4933516;29;20934;-88
2021/05/26 09:38:44;;;;;;;1.25;0.90;;;;;;;16.20;42.98;95505.97;4940919;29;20209;-87
2021/05/26 09:41:12;;;;;;;4.40;1.05;;;;;;;16.19;42.99;95502.56;4957979;29;20235;-88
2021/05/26 09:43:42;;;;;;;0.82;0.80;;;;;;;16.23;42.34;95495.16;4957869;29;20235;-88
2021/05/26 09:46:30;;;;;;;0.93;0.80;;;;;;;16.23;41.91;95500.34;4956530;29;20344;-88
2021/05/26 09:49:04;;;;;;;2.92;1.10;;;;;;;16.18;42.32;95497.59;4957998;29;20642;-88
2021/05/26 09:51:32;;;;;;;1.52;0.98;;;;;;;16.26;42.41;95493.94;4956969;28;20243;-89
2021/05/26 09:54:13;;;;;;;0.95;0.82;;;;;;;16.41;42.29;95496.97;4959697;28;20216;-86
2021/05/26 09:56:39;;;;;;;3.03;0.90;;;;;;;16.61;42.47;95496.78;4958395;28;20221;-89
2021/05/26 09:59:06;;;;;;;1.27;0.90;;;;;;;16.70;41.80;95503.34;4958664;28;20201;-87
2021/05/26 10:01:33;;;;;;;1.23;1.00;;;;;;;16.62;41.89;95506.19;4958034;28;20229;-87
2021/05/26 10:04:00;;;;;;;3.50;1.05;;;;;;;16.62;42.19;95506.97;4957810;28;20224;-87
2021/05/26 10:06:28;;;;;;;0.98;0.82;;;;;;;16.72;42.21;95509.91;4958754;29;20204;-88
2021/05/26 10:08:56;;;;;;;2.70;1.08;;;;;;;16.84;41.75;95510.78;4958206;28;20232;-87
2021/05/26 10:11:26;;;;;;;1.90;1.00;;;;;;;16.93;41.85;95506.09;4957925;29;20208;-87
2021/05/26 10:13:52;;;;;;;2.83;1.00;;;;;;;16.92;41.52;95500.09;4958569;29;20235;-87
2021/05/26 10:16:20;;;;;;;1.75;1.10;;;;;;;16.90;42.21;95499.50;4957362;29;20272;-88
2021/05/26 10:18:47;;;;;;;3.08;1.13;;;;;;;16.93;43.97;95503.50;4957310;28;20193;-88
2021/05/26 10:21:14;;;;;;;2.60;1.10;;;;;;;17.01;42.06;95495.38;4958532;29;20201;-88
2021/05/26 10:23:41;;;;;;;1.60;1.00;;;;;;;17.00;41.26;95506.00;4958401;29;20314;-87
2021/05/26 10:26:08;;;;;;;1.23;1.00;;;;;;;17.08;41.31;95485.69;4956684;29;20245;-88
2021/05/26 10:28:37;;;;;;;3.50;1.20;;;;;;;17.15;41.94;95491.59;4955376;28;20201;-88
2021/05/26 10:31:05;;;;;;;3.13;1.10;;;;;;;17.19;42.30;95495.34;4953193;29;20197;-88
2021/05/26 10:33:50;;;;;;;3.65;1.30;;;;;;;17.18;43.48;95485.16;4957154;28;20229;-86
2021/05/26 10:36:17;;;;;;;2.25;1.10;;;;;;;17.07;42.52;95484.09;4954804;29;20219;-87
2021/05/26 10:38:53;;;;;;;1.38;1.10;;;;;;;17.01;41.24;95477.16;4957363;29;20241;-87
2021/05/26 10:41:20;;;;;;;2.13;1.20;;;;;;;17.07;42.11;95476.31;4956305;29;20196;-88
2021/05/26 10:43:54;;;;;;;3.78;1.70;;;;;;;17.14;43.25;95471.78;4957480;28;20196;-87
2021/05/26 10:46:35;;;;;;;2.42;1.15;;;;;;;17.16;41.56;95458.56;4954593;29;20234;-89
2021/05/26 10:49:09;;;;;;;2.38;1.30;;;;;;;17.18;42.75;95464.34;4956638;28;20212;-88
2021/05/26 10:52:06;;;;;;;2.78;1.50;;;;;;;17.21;43.03;95462.09;4955893;28;20267;-89
2021/05/26 10:55:00;;;;;;;1.85;1.25;;;;;;;17.29;42.75;95461.00;4955147;28;20712;-87
2021/05/26 10:57:29;;;;;;;4.07;1.20;;;;;;;17.29;42.18;95468.81;4956773;28;20279;-86
2021/05/26 11:00:25;;;;;;;3.97;1.42;;;;;;;17.20;42.43;95477.94;4955453;29;20236;-88
2021/05/26 11:03:40;;;;;;;3.28;1.27;;;;;;;17.12;42.44;95467.84;4955705;29;20225;-87
2021/05/26 11:06:36;;;;;;;2.13;1.20;;;;;;;17.11;42.92;95489.66;4954089;28;20197;-88
2021/05/26 11:09:06;;;;;;;2.00;1.17;;;;;;;17.07;43.30;95470.31;4951384;29;20205;-85
2021/05/26 11:11:49;;;;;;;2.50;1.05;;;;;;;17.15;43.59;95472.59;4950349;28;20251;-86
2021/05/26 11:14:30;;;;;;;2.05;1.08;;;;;;;17.15;43.18;95475.97;4963931;28;20209;-89
2021/05/26 11:17:24;;;;;;;1.52;1.00;;;;;;;17.01;42.78;95463.38;4956221;29;20221;-88
2021/05/26 11:19:50;;;;;;;2.05;1.30;;;;;;;17.07;43.79;95465.09;4938038;29;20502;-88
2021/05/26 11:22:22;;;;;;;2.17;1.27;;;;;;;17.14;43.72;95463.97;4950169;29;20675;-88
2021/05/26 11:24:50;;;;;;;2.95;1.20;;;;;;;17.03;42.95;95461.34;4955512;28;20262;-87
2021/05/26 11:27:18;;;;;;;2.17;0.90;;;;;;;17.04;42.71;95460.31;4953921;28;20202;-87
2021/05/26 11:29:48;;;;;;;1.40;1.00;;;;;;;17.07;43.31;95471.09;4955682;29;20204;-88
2021/05/26 11:32:15;;;;;;;2.67;1.10;;;;;;;17.14;42.61;95471.00;4957097;28;20232;-88
2021/05/26 11:34:43;;;;;;;1.17;1.08;;;;;;;17.15;43.00;95464.78;4957160;28;20196;-87
2021/05/26 11:37:11;;;;;;;1.67;0.88;;;;;;;17.10;41.50;95451.66;4955678;29;20221;-87